sensor_id;sensor_type;location;lat;lon;timestamp;P1;durP1;ratioP1;P2;durP2;ratioP2
54937;SDS011;52756;52.826;6.214;2024-01-30T00:01:28;20.52;;;15.55;;
54937;SDS011;52756;52.826;6.214;2024-01-30T00:03:53;22.95;;;17.20;;
54937;SDS011;52756;52.826;6.214;2024-01-30T00:06:19;20.38;;;16.17;;
54937;SDS011;52756;52.826;6.214;2024-01-30T00:08:48;22.02;;;17.85;;
54937;SDS011;52756;52.826;6.214;2024-01-30T00:11:15;22.00;;;17.70;;
54937;SDS011;52756;52.826;6.214;2024-01-30T00:13:41;23.27;;;17.58;;
54937;SDS011;52756;52.826;6.214;2024-01-30T00:16:07;23.98;;;17.98;;
54937;SDS011;52756;52.826;6.214;2024-01-30T00:18:34;23.42;;;17.40;;
54937;SDS011;52756;52.826;6.214;2024-01-30T00:20:59;23.80;;;18.15;;
54937;SDS011;52756;52.826;6.214;2024-01-30T00:23:25;22.90;;;18.00;;
54937;SDS011;52756;52.826;6.214;2024-01-30T00:25:50;22.75;;;17.13;;
54937;SDS011;52756;52.826;6.214;2024-01-30T00:28:16;19.50;;;16.38;;
54937;SDS011;52756;52.826;6.214;2024-01-30T00:30:42;21.58;;;17.08;;
54937;SDS011;52756;52.826;6.214;2024-01-30T00:33:08;22.70;;;17.50;;
54937;SDS011;52756;52.826;6.214;2024-01-30T00:35:34;20.50;;;16.80;;
54937;SDS011;52756;52.826;6.214;2024-01-30T00:38:00;21.42;;;15.75;;
54937;SDS011;52756;52.826;6.214;2024-01-30T00:40:25;21.33;;;17.23;;
54937;SDS011;52756;52.826;6.214;2024-01-30T00:42:51;21.33;;;17.08;;
54937;SDS011;52756;52.826;6.214;2024-01-30T00:45:17;21.98;;;17.45;;
54937;SDS011;52756;52.826;6.214;2024-01-30T00:47:43;22.25;;;18.15;;
54937;SDS011;52756;52.826;6.214;2024-01-30T00:50:09;23.65;;;17.45;;
54937;SDS011;52756;52.826;6.214;2024-01-30T00:52:35;22.67;;;17.85;;
54937;SDS011;52756;52.826;6.214;2024-01-30T00:55:01;25.02;;;18.08;;
54937;SDS011;52756;52.826;6.214;2024-01-30T00:57:27;25.98;;;17.95;;
54937;SDS011;52756;52.826;6.214;2024-01-30T00:59:53;22.35;;;18.48;;
54937;SDS011;52756;52.826;6.214;2024-01-30T01:02:19;20.63;;;17.17;;
54937;SDS011;52756;52.826;6.214;2024-01-30T01:04:45;21.48;;;17.55;;
54937;SDS011;52756;52.826;6.214;2024-01-30T01:07:11;21.63;;;17.73;;
54937;SDS011;52756;52.826;6.214;2024-01-30T01:09:37;21.35;;;17.55;;
54937;SDS011;52756;52.826;6.214;2024-01-30T01:12:03;22.48;;;18.15;;
54937;SDS011;52756;52.826;6.214;2024-01-30T01:14:29;21.42;;;18.02;;
54937;SDS011;52756;52.826;6.214;2024-01-30T01:16:55;24.55;;;17.25;;
54937;SDS011;52756;52.826;6.214;2024-01-30T01:19:21;24.75;;;18.75;;
54937;SDS011;52756;52.826;6.214;2024-01-30T01:21:47;23.95;;;18.45;;
54937;SDS011;52756;52.826;6.214;2024-01-30T01:24:15;24.80;;;19.17;;
54937;SDS011;52756;52.826;6.214;2024-01-30T01:26:41;24.35;;;18.00;;
54937;SDS011;52756;52.826;6.214;2024-01-30T01:29:07;23.27;;;17.23;;
54937;SDS011;52756;52.826;6.214;2024-01-30T01:31:37;22.55;;;17.27;;
54937;SDS011;52756;52.826;6.214;2024-01-30T01:34:11;22.70;;;17.67;;
54937;SDS011;52756;52.826;6.214;2024-01-30T01:36:38;22.00;;;16.80;;
54937;SDS011;52756;52.826;6.214;2024-01-30T01:39:04;23.20;;;17.88;;
54937;SDS011;52756;52.826;6.214;2024-01-30T01:41:30;24.90;;;18.50;;
54937;SDS011;52756;52.826;6.214;2024-01-30T01:43:57;25.20;;;18.67;;
54937;SDS011;52756;52.826;6.214;2024-01-30T01:46:22;23.23;;;17.73;;
54937;SDS011;52756;52.826;6.214;2024-01-30T01:48:49;23.77;;;18.02;;
54937;SDS011;52756;52.826;6.214;2024-01-30T01:51:15;25.23;;;18.77;;
54937;SDS011;52756;52.826;6.214;2024-01-30T01:53:41;24.83;;;19.08;;
54937;SDS011;52756;52.826;6.214;2024-01-30T01:56:07;22.20;;;17.17;;
54937;SDS011;52756;52.826;6.214;2024-01-30T01:58:33;25.45;;;18.10;;
54937;SDS011;52756;52.826;6.214;2024-01-30T02:00:59;22.58;;;18.38;;
54937;SDS011;52756;52.826;6.214;2024-01-30T02:03:25;23.02;;;18.13;;
54937;SDS011;52756;52.826;6.214;2024-01-30T02:05:50;24.05;;;19.17;;
54937;SDS011;52756;52.826;6.214;2024-01-30T02:08:17;23.30;;;17.58;;
54937;SDS011;52756;52.826;6.214;2024-01-30T02:10:42;24.88;;;19.40;;
54937;SDS011;52756;52.826;6.214;2024-01-30T02:13:08;24.70;;;17.83;;
54937;SDS011;52756;52.826;6.214;2024-01-30T02:15:33;20.60;;;17.33;;
54937;SDS011;52756;52.826;6.214;2024-01-30T02:17:59;23.42;;;18.40;;
54937;SDS011;52756;52.826;6.214;2024-01-30T02:20:25;23.05;;;17.90;;
54937;SDS011;52756;52.826;6.214;2024-01-30T02:22:55;24.17;;;18.27;;
54937;SDS011;52756;52.826;6.214;2024-01-30T02:25:30;25.52;;;19.08;;
54937;SDS011;52756;52.826;6.214;2024-01-30T02:27:56;23.63;;;19.08;;
54937;SDS011;52756;52.826;6.214;2024-01-30T02:30:22;21.27;;;17.88;;
54937;SDS011;52756;52.826;6.214;2024-01-30T02:32:48;23.55;;;18.80;;
54937;SDS011;52756;52.826;6.214;2024-01-30T02:35:13;24.92;;;18.00;;
54937;SDS011;52756;52.826;6.214;2024-01-30T02:37:39;24.08;;;18.15;;
54937;SDS011;52756;52.826;6.214;2024-01-30T02:40:04;25.00;;;19.25;;
54937;SDS011;52756;52.826;6.214;2024-01-30T02:42:31;24.73;;;18.42;;
54937;SDS011;52756;52.826;6.214;2024-01-30T02:44:56;22.58;;;18.55;;
54937;SDS011;52756;52.826;6.214;2024-01-30T02:47:22;22.25;;;17.80;;
54937;SDS011;52756;52.826;6.214;2024-01-30T02:49:47;23.67;;;19.30;;
54937;SDS011;52756;52.826;6.214;2024-01-30T02:52:13;20.48;;;17.08;;
54937;SDS011;52756;52.826;6.214;2024-01-30T02:54:39;20.88;;;16.60;;
54937;SDS011;52756;52.826;6.214;2024-01-30T02:57:04;23.65;;;18.48;;
54937;SDS011;52756;52.826;6.214;2024-01-30T02:59:30;21.30;;;17.05;;
54937;SDS011;52756;52.826;6.214;2024-01-30T03:01:58;22.55;;;17.75;;
54937;SDS011;52756;52.826;6.214;2024-01-30T03:04:24;23.30;;;18.45;;
54937;SDS011;52756;52.826;6.214;2024-01-30T03:06:49;19.88;;;16.85;;
54937;SDS011;52756;52.826;6.214;2024-01-30T03:09:16;24.42;;;18.45;;
54937;SDS011;52756;52.826;6.214;2024-01-30T03:11:42;22.20;;;18.73;;
54937;SDS011;52756;52.826;6.214;2024-01-30T03:14:08;26.85;;;19.90;;
54937;SDS011;52756;52.826;6.214;2024-01-30T03:16:36;24.08;;;18.42;;
54937;SDS011;52756;52.826;6.214;2024-01-30T03:19:02;25.20;;;19.15;;
54937;SDS011;52756;52.826;6.214;2024-01-30T03:21:28;26.10;;;19.55;;
54937;SDS011;52756;52.826;6.214;2024-01-30T03:23:54;25.40;;;19.63;;
54937;SDS011;52756;52.826;6.214;2024-01-30T03:26:20;28.27;;;19.83;;
54937;SDS011;52756;52.826;6.214;2024-01-30T03:28:45;24.58;;;19.25;;
54937;SDS011;52756;52.826;6.214;2024-01-30T03:31:13;27.60;;;20.20;;
54937;SDS011;52756;52.826;6.214;2024-01-30T03:33:40;23.60;;;19.20;;
54937;SDS011;52756;52.826;6.214;2024-01-30T03:36:06;27.73;;;20.13;;
54937;SDS011;52756;52.826;6.214;2024-01-30T03:38:32;24.60;;;19.55;;
54937;SDS011;52756;52.826;6.214;2024-01-30T03:40:58;25.00;;;18.65;;
54937;SDS011;52756;52.826;6.214;2024-01-30T03:43:25;25.05;;;19.23;;
54937;SDS011;52756;52.826;6.214;2024-01-30T03:45:50;27.15;;;19.38;;
54937;SDS011;52756;52.826;6.214;2024-01-30T03:48:16;27.33;;;19.45;;
54937;SDS011;52756;52.826;6.214;2024-01-30T03:50:42;30.42;;;20.45;;
54937;SDS011;52756;52.826;6.214;2024-01-30T03:53:07;22.88;;;18.30;;
54937;SDS011;52756;52.826;6.214;2024-01-30T03:55:33;23.92;;;17.98;;
54937;SDS011;52756;52.826;6.214;2024-01-30T03:57:58;25.17;;;18.40;;
54937;SDS011;52756;52.826;6.214;2024-01-30T04:00:24;22.77;;;18.27;;
54937;SDS011;52756;52.826;6.214;2024-01-30T04:02:49;23.33;;;17.13;;
54937;SDS011;52756;52.826;6.214;2024-01-30T04:05:16;20.65;;;16.17;;
54937;SDS011;52756;52.826;6.214;2024-01-30T04:07:42;22.52;;;18.02;;
54937;SDS011;52756;52.826;6.214;2024-01-30T04:10:08;22.00;;;17.08;;
54937;SDS011;52756;52.826;6.214;2024-01-30T04:12:34;22.27;;;16.38;;
54937;SDS011;52756;52.826;6.214;2024-01-30T04:15:01;25.15;;;16.17;;
54937;SDS011;52756;52.826;6.214;2024-01-30T04:17:27;20.02;;;16.73;;
54937;SDS011;52756;52.826;6.214;2024-01-30T04:19:54;23.58;;;17.65;;
54937;SDS011;52756;52.826;6.214;2024-01-30T04:22:20;20.13;;;16.35;;
54937;SDS011;52756;52.826;6.214;2024-01-30T04:24:45;23.40;;;16.30;;
54937;SDS011;52756;52.826;6.214;2024-01-30T04:27:11;23.75;;;17.13;;
54937;SDS011;52756;52.826;6.214;2024-01-30T04:29:37;20.40;;;15.80;;
54937;SDS011;52756;52.826;6.214;2024-01-30T04:32:03;18.67;;;15.43;;
54937;SDS011;52756;52.826;6.214;2024-01-30T04:34:29;19.08;;;15.80;;
54937;SDS011;52756;52.826;6.214;2024-01-30T04:36:54;19.55;;;16.13;;
54937;SDS011;52756;52.826;6.214;2024-01-30T04:39:20;19.85;;;15.35;;
54937;SDS011;52756;52.826;6.214;2024-01-30T04:41:45;21.42;;;16.00;;
54937;SDS011;52756;52.826;6.214;2024-01-30T04:44:11;21.45;;;15.45;;
54937;SDS011;52756;52.826;6.214;2024-01-30T04:46:37;20.33;;;15.13;;
54937;SDS011;52756;52.826;6.214;2024-01-30T04:49:02;20.33;;;15.73;;
54937;SDS011;52756;52.826;6.214;2024-01-30T04:51:28;17.63;;;14.32;;
54937;SDS011;52756;52.826;6.214;2024-01-30T04:53:54;20.30;;;15.68;;
54937;SDS011;52756;52.826;6.214;2024-01-30T04:56:20;20.13;;;15.15;;
54937;SDS011;52756;52.826;6.214;2024-01-30T04:58:46;20.50;;;15.27;;
54937;SDS011;52756;52.826;6.214;2024-01-30T05:01:15;20.65;;;15.63;;
54937;SDS011;52756;52.826;6.214;2024-01-30T05:03:41;20.20;;;14.82;;
54937;SDS011;52756;52.826;6.214;2024-01-30T05:06:07;19.10;;;15.00;;
54937;SDS011;52756;52.826;6.214;2024-01-30T05:08:33;21.27;;;15.10;;
54937;SDS011;52756;52.826;6.214;2024-01-30T05:11:01;19.58;;;14.70;;
54937;SDS011;52756;52.826;6.214;2024-01-30T05:13:29;21.08;;;15.27;;
54937;SDS011;52756;52.826;6.214;2024-01-30T05:15:55;19.40;;;14.15;;
54937;SDS011;52756;52.826;6.214;2024-01-30T05:18:21;17.88;;;14.40;;
54937;SDS011;52756;52.826;6.214;2024-01-30T05:20:46;17.48;;;13.75;;
54937;SDS011;52756;52.826;6.214;2024-01-30T05:23:12;17.80;;;13.32;;
54937;SDS011;52756;52.826;6.214;2024-01-30T05:25:37;19.30;;;14.30;;
54937;SDS011;52756;52.826;6.214;2024-01-30T05:28:03;19.40;;;13.60;;
54937;SDS011;52756;52.826;6.214;2024-01-30T05:30:29;18.30;;;13.80;;
54937;SDS011;52756;52.826;6.214;2024-01-30T05:32:54;19.20;;;14.35;;
54937;SDS011;52756;52.826;6.214;2024-01-30T05:35:20;17.92;;;13.93;;
54937;SDS011;52756;52.826;6.214;2024-01-30T05:37:47;20.30;;;13.43;;
54937;SDS011;52756;52.826;6.214;2024-01-30T05:40:14;17.08;;;13.95;;
54937;SDS011;52756;52.826;6.214;2024-01-30T05:42:39;18.20;;;13.50;;
54937;SDS011;52756;52.826;6.214;2024-01-30T05:45:05;15.77;;;12.52;;
54937;SDS011;52756;52.826;6.214;2024-01-30T05:47:31;18.90;;;14.57;;
54937;SDS011;52756;52.826;6.214;2024-01-30T05:49:57;20.27;;;14.10;;
54937;SDS011;52756;52.826;6.214;2024-01-30T05:52:22;15.50;;;12.88;;
54937;SDS011;52756;52.826;6.214;2024-01-30T05:54:48;16.83;;;12.82;;
54937;SDS011;52756;52.826;6.214;2024-01-30T05:57:13;14.75;;;12.15;;
54937;SDS011;52756;52.826;6.214;2024-01-30T05:59:39;15.55;;;12.43;;
54937;SDS011;52756;52.826;6.214;2024-01-30T06:02:05;19.58;;;13.23;;
54937;SDS011;52756;52.826;6.214;2024-01-30T06:04:30;15.95;;;13.20;;
54937;SDS011;52756;52.826;6.214;2024-01-30T06:06:56;14.63;;;13.00;;
54937;SDS011;52756;52.826;6.214;2024-01-30T06:09:21;16.83;;;12.63;;
54937;SDS011;52756;52.826;6.214;2024-01-30T06:11:47;18.35;;;11.63;;
54937;SDS011;52756;52.826;6.214;2024-01-30T06:14:12;16.33;;;12.88;;
54937;SDS011;52756;52.826;6.214;2024-01-30T06:16:38;15.55;;;12.80;;
54937;SDS011;52756;52.826;6.214;2024-01-30T06:19:03;18.27;;;11.90;;
54937;SDS011;52756;52.826;6.214;2024-01-30T06:21:29;18.67;;;12.32;;
54937;SDS011;52756;52.826;6.214;2024-01-30T06:23:56;15.85;;;12.10;;
54937;SDS011;52756;52.826;6.214;2024-01-30T06:26:22;15.73;;;12.88;;
54937;SDS011;52756;52.826;6.214;2024-01-30T06:28:47;15.05;;;11.65;;
54937;SDS011;52756;52.826;6.214;2024-01-30T06:31:13;15.93;;;12.20;;
54937;SDS011;52756;52.826;6.214;2024-01-30T06:33:39;16.02;;;11.80;;
54937;SDS011;52756;52.826;6.214;2024-01-30T06:36:07;15.52;;;11.88;;
54937;SDS011;52756;52.826;6.214;2024-01-30T06:38:32;16.38;;;12.07;;
54937;SDS011;52756;52.826;6.214;2024-01-30T06:40:58;15.32;;;12.60;;
54937;SDS011;52756;52.826;6.214;2024-01-30T06:43:24;13.65;;;11.25;;
54937;SDS011;52756;52.826;6.214;2024-01-30T06:45:49;15.68;;;11.48;;
54937;SDS011;52756;52.826;6.214;2024-01-30T06:48:16;14.70;;;12.07;;
54937;SDS011;52756;52.826;6.214;2024-01-30T06:50:42;14.65;;;12.43;;
54937;SDS011;52756;52.826;6.214;2024-01-30T06:53:08;15.98;;;11.70;;
54937;SDS011;52756;52.826;6.214;2024-01-30T06:55:33;16.25;;;11.52;;
54937;SDS011;52756;52.826;6.214;2024-01-30T06:57:59;15.63;;;11.40;;
54937;SDS011;52756;52.826;6.214;2024-01-30T07:00:24;17.33;;;12.30;;
54937;SDS011;52756;52.826;6.214;2024-01-30T07:02:50;13.90;;;11.73;;
54937;SDS011;52756;52.826;6.214;2024-01-30T07:05:16;18.08;;;11.85;;
54937;SDS011;52756;52.826;6.214;2024-01-30T07:07:42;13.57;;;11.40;;
54937;SDS011;52756;52.826;6.214;2024-01-30T07:10:08;16.27;;;11.60;;
54937;SDS011;52756;52.826;6.214;2024-01-30T07:12:34;14.82;;;11.52;;
54937;SDS011;52756;52.826;6.214;2024-01-30T07:14:59;15.88;;;12.60;;
54937;SDS011;52756;52.826;6.214;2024-01-30T07:17:25;17.85;;;11.60;;
54937;SDS011;52756;52.826;6.214;2024-01-30T07:19:50;16.48;;;11.88;;
54937;SDS011;52756;52.826;6.214;2024-01-30T07:22:16;15.77;;;11.73;;
54937;SDS011;52756;52.826;6.214;2024-01-30T07:24:42;14.95;;;11.43;;
54937;SDS011;52756;52.826;6.214;2024-01-30T07:27:10;17.17;;;11.63;;
54937;SDS011;52756;52.826;6.214;2024-01-30T07:29:35;15.95;;;12.18;;
54937;SDS011;52756;52.826;6.214;2024-01-30T07:32:01;16.60;;;11.40;;
54937;SDS011;52756;52.826;6.214;2024-01-30T07:34:27;17.25;;;12.15;;
54937;SDS011;52756;52.826;6.214;2024-01-30T07:36:52;15.60;;;11.68;;
54937;SDS011;52756;52.826;6.214;2024-01-30T07:39:18;14.48;;;11.80;;
54937;SDS011;52756;52.826;6.214;2024-01-30T07:41:43;14.38;;;11.32;;
54937;SDS011;52756;52.826;6.214;2024-01-30T07:44:09;15.32;;;11.50;;
54937;SDS011;52756;52.826;6.214;2024-01-30T07:46:34;15.18;;;11.30;;
54937;SDS011;52756;52.826;6.214;2024-01-30T07:49:00;13.50;;;10.75;;
54937;SDS011;52756;52.826;6.214;2024-01-30T07:51:26;15.45;;;10.75;;
54937;SDS011;52756;52.826;6.214;2024-01-30T07:53:54;15.23;;;10.25;;
54937;SDS011;52756;52.826;6.214;2024-01-30T07:56:20;14.93;;;10.93;;
54937;SDS011;52756;52.826;6.214;2024-01-30T07:58:45;13.60;;;10.73;;
54937;SDS011;52756;52.826;6.214;2024-01-30T08:01:11;17.42;;;11.30;;
54937;SDS011;52756;52.826;6.214;2024-01-30T08:03:37;15.43;;;10.80;;
54937;SDS011;52756;52.826;6.214;2024-01-30T08:06:04;13.88;;;10.68;;
54937;SDS011;52756;52.826;6.214;2024-01-30T08:08:31;13.43;;;10.98;;
54937;SDS011;52756;52.826;6.214;2024-01-30T08:10:57;13.65;;;10.82;;
54937;SDS011;52756;52.826;6.214;2024-01-30T08:13:22;12.88;;;10.68;;
54937;SDS011;52756;52.826;6.214;2024-01-30T08:15:48;14.85;;;10.55;;
54937;SDS011;52756;52.826;6.214;2024-01-30T08:18:14;14.02;;;10.40;;
54937;SDS011;52756;52.826;6.214;2024-01-30T08:20:39;13.00;;;10.98;;
54937;SDS011;52756;52.826;6.214;2024-01-30T08:23:05;15.02;;;11.00;;
54937;SDS011;52756;52.826;6.214;2024-01-30T08:25:31;14.85;;;11.10;;
54937;SDS011;52756;52.826;6.214;2024-01-30T08:27:56;16.95;;;11.70;;
54937;SDS011;52756;52.826;6.214;2024-01-30T08:30:22;15.90;;;10.35;;
54937;SDS011;52756;52.826;6.214;2024-01-30T08:32:48;12.95;;;10.10;;
54937;SDS011;52756;52.826;6.214;2024-01-30T08:35:13;14.13;;;10.20;;
54937;SDS011;52756;52.826;6.214;2024-01-30T08:37:41;13.65;;;10.07;;
54937;SDS011;52756;52.826;6.214;2024-01-30T08:40:07;12.68;;;9.90;;
54937;SDS011;52756;52.826;6.214;2024-01-30T08:42:33;13.07;;;10.27;;
54937;SDS011;52756;52.826;6.214;2024-01-30T08:44:59;13.98;;;10.77;;
54937;SDS011;52756;52.826;6.214;2024-01-30T08:47:25;16.55;;;10.30;;
54937;SDS011;52756;52.826;6.214;2024-01-30T08:49:51;14.38;;;11.02;;
54937;SDS011;52756;52.826;6.214;2024-01-30T08:52:16;15.40;;;10.90;;
54937;SDS011;52756;52.826;6.214;2024-01-30T08:54:42;16.70;;;11.15;;
54937;SDS011;52756;52.826;6.214;2024-01-30T08:57:08;14.55;;;10.43;;
54937;SDS011;52756;52.826;6.214;2024-01-30T08:59:33;14.15;;;10.00;;
54937;SDS011;52756;52.826;6.214;2024-01-30T09:01:59;13.15;;;10.88;;
54937;SDS011;52756;52.826;6.214;2024-01-30T09:04:25;16.05;;;11.05;;
54937;SDS011;52756;52.826;6.214;2024-01-30T09:06:50;15.23;;;10.13;;
54937;SDS011;52756;52.826;6.214;2024-01-30T09:09:16;15.77;;;10.50;;
54937;SDS011;52756;52.826;6.214;2024-01-30T09:11:42;14.70;;;11.25;;
54937;SDS011;52756;52.826;6.214;2024-01-30T09:14:08;14.07;;;10.18;;
54937;SDS011;52756;52.826;6.214;2024-01-30T09:16:34;14.10;;;10.80;;
54937;SDS011;52756;52.826;6.214;2024-01-30T09:19:00;15.77;;;11.63;;
54937;SDS011;52756;52.826;6.214;2024-01-30T09:21:25;14.80;;;11.00;;
54937;SDS011;52756;52.826;6.214;2024-01-30T09:23:53;16.35;;;10.73;;
54937;SDS011;52756;52.826;6.214;2024-01-30T09:26:19;17.20;;;11.32;;
54937;SDS011;52756;52.826;6.214;2024-01-30T09:28:45;14.52;;;11.07;;
54937;SDS011;52756;52.826;6.214;2024-01-30T09:31:11;13.45;;;10.30;;
54937;SDS011;52756;52.826;6.214;2024-01-30T09:33:37;11.70;;;9.93;;
54937;SDS011;52756;52.826;6.214;2024-01-30T09:36:04;14.50;;;11.43;;
54937;SDS011;52756;52.826;6.214;2024-01-30T09:38:30;16.08;;;10.82;;
54937;SDS011;52756;52.826;6.214;2024-01-30T09:40:56;14.40;;;10.75;;
54937;SDS011;52756;52.826;6.214;2024-01-30T09:43:28;15.80;;;10.50;;
54937;SDS011;52756;52.826;6.214;2024-01-30T09:45:58;13.23;;;10.48;;
54937;SDS011;52756;52.826;6.214;2024-01-30T09:48:27;18.23;;;11.05;;
54937;SDS011;52756;52.826;6.214;2024-01-30T09:50:53;15.43;;;11.55;;
54937;SDS011;52756;52.826;6.214;2024-01-30T09:53:19;18.58;;;11.02;;
54937;SDS011;52756;52.826;6.214;2024-01-30T09:55:46;14.88;;;10.75;;
54937;SDS011;52756;52.826;6.214;2024-01-30T09:58:12;15.30;;;11.00;;
54937;SDS011;52756;52.826;6.214;2024-01-30T10:00:38;18.00;;;11.30;;
54937;SDS011;52756;52.826;6.214;2024-01-30T10:03:04;16.50;;;11.40;;
54937;SDS011;52756;52.826;6.214;2024-01-30T10:05:30;16.95;;;11.88;;
54937;SDS011;52756;52.826;6.214;2024-01-30T10:07:58;16.52;;;11.88;;
54937;SDS011;52756;52.826;6.214;2024-01-30T10:10:24;14.65;;;10.73;;
54937;SDS011;52756;52.826;6.214;2024-01-30T10:12:51;15.63;;;11.50;;
54937;SDS011;52756;52.826;6.214;2024-01-30T10:15:17;17.48;;;11.55;;
54937;SDS011;52756;52.826;6.214;2024-01-30T10:17:44;21.50;;;13.13;;
54937;SDS011;52756;52.826;6.214;2024-01-30T10:20:10;19.45;;;11.88;;
54937;SDS011;52756;52.826;6.214;2024-01-30T10:22:36;20.27;;;12.65;;
54937;SDS011;52756;52.826;6.214;2024-01-30T10:25:02;19.20;;;12.65;;
54937;SDS011;52756;52.826;6.214;2024-01-30T10:27:28;16.70;;;11.48;;
54937;SDS011;52756;52.826;6.214;2024-01-30T10:29:54;19.83;;;12.10;;
54937;SDS011;52756;52.826;6.214;2024-01-30T10:32:20;15.88;;;11.68;;
54937;SDS011;52756;52.826;6.214;2024-01-30T10:34:47;16.02;;;12.57;;
54937;SDS011;52756;52.826;6.214;2024-01-30T10:37:13;19.10;;;11.82;;
54937;SDS011;52756;52.826;6.214;2024-01-30T10:39:46;15.45;;;11.32;;
54937;SDS011;52756;52.826;6.214;2024-01-30T10:42:12;16.50;;;12.13;;
54937;SDS011;52756;52.826;6.214;2024-01-30T10:47:27;19.15;;;11.63;;
54937;SDS011;52756;52.826;6.214;2024-01-30T10:49:54;15.82;;;12.23;;
54937;SDS011;52756;52.826;6.214;2024-01-30T10:52:21;17.42;;;12.00;;
54937;SDS011;52756;52.826;6.214;2024-01-30T10:54:50;21.08;;;12.75;;
54937;SDS011;52756;52.826;6.214;2024-01-30T10:57:17;18.92;;;12.98;;
54937;SDS011;52756;52.826;6.214;2024-01-30T10:59:43;16.83;;;12.65;;
54937;SDS011;52756;52.826;6.214;2024-01-30T11:02:10;16.92;;;12.05;;
54937;SDS011;52756;52.826;6.214;2024-01-30T11:04:36;16.55;;;11.38;;
54937;SDS011;52756;52.826;6.214;2024-01-30T11:07:13;21.40;;;13.20;;
54937;SDS011;52756;52.826;6.214;2024-01-30T11:09:41;20.35;;;14.68;;
54937;SDS011;52756;52.826;6.214;2024-01-30T11:12:13;18.80;;;12.20;;
54937;SDS011;52756;52.826;6.214;2024-01-30T11:14:38;23.77;;;13.70;;
54937;SDS011;52756;52.826;6.214;2024-01-30T11:17:05;16.83;;;12.10;;
54937;SDS011;52756;52.826;6.214;2024-01-30T11:19:31;20.20;;;13.95;;
54937;SDS011;52756;52.826;6.214;2024-01-30T11:21:57;20.85;;;14.07;;
54937;SDS011;52756;52.826;6.214;2024-01-30T11:24:23;23.58;;;13.93;;
54937;SDS011;52756;52.826;6.214;2024-01-30T11:26:49;17.42;;;12.98;;
54937;SDS011;52756;52.826;6.214;2024-01-30T11:29:20;18.95;;;13.23;;
54937;SDS011;52756;52.826;6.214;2024-01-30T11:31:56;17.17;;;12.73;;
54937;SDS011;52756;52.826;6.214;2024-01-30T11:34:25;20.90;;;12.88;;
54937;SDS011;52756;52.826;6.214;2024-01-30T11:37:03;25.38;;;14.13;;
54937;SDS011;52756;52.826;6.214;2024-01-30T11:39:34;21.35;;;12.60;;
54937;SDS011;52756;52.826;6.214;2024-01-30T11:42:01;20.88;;;11.50;;
54937;SDS011;52756;52.826;6.214;2024-01-30T11:44:29;20.70;;;11.05;;
54937;SDS011;52756;52.826;6.214;2024-01-30T11:46:55;19.50;;;10.25;;
54937;SDS011;52756;52.826;6.214;2024-01-30T11:49:21;21.20;;;9.25;;
54937;SDS011;52756;52.826;6.214;2024-01-30T11:51:48;18.60;;;7.30;;
54937;SDS011;52756;52.826;6.214;2024-01-30T11:54:14;15.90;;;6.43;;
54937;SDS011;52756;52.826;6.214;2024-01-30T11:56:43;17.75;;;6.63;;
54937;SDS011;52756;52.826;6.214;2024-01-30T11:59:08;15.40;;;6.20;;
54937;SDS011;52756;52.826;6.214;2024-01-30T12:01:34;11.65;;;4.88;;
54937;SDS011;52756;52.826;6.214;2024-01-30T12:04:00;11.68;;;4.93;;
54937;SDS011;52756;52.826;6.214;2024-01-30T12:06:26;12.05;;;5.18;;
54937;SDS011;52756;52.826;6.214;2024-01-30T12:08:59;8.63;;;4.15;;
54937;SDS011;52756;52.826;6.214;2024-01-30T12:11:26;7.90;;;3.35;;
54937;SDS011;52756;52.826;6.214;2024-01-30T12:13:52;11.18;;;3.35;;
54937;SDS011;52756;52.826;6.214;2024-01-30T12:16:19;7.93;;;2.53;;
54937;SDS011;52756;52.826;6.214;2024-01-30T12:18:45;6.65;;;2.75;;
54937;SDS011;52756;52.826;6.214;2024-01-30T12:21:11;6.55;;;2.38;;
54937;SDS011;52756;52.826;6.214;2024-01-30T12:23:36;5.90;;;1.92;;
54937;SDS011;52756;52.826;6.214;2024-01-30T12:26:02;7.40;;;1.98;;
54937;SDS011;52756;52.826;6.214;2024-01-30T12:28:31;2.70;;;1.70;;
54937;SDS011;52756;52.826;6.214;2024-01-30T12:31:01;4.63;;;1.95;;
54937;SDS011;52756;52.826;6.214;2024-01-30T12:33:30;4.35;;;1.60;;
54937;SDS011;52756;52.826;6.214;2024-01-30T12:35:56;3.67;;;1.10;;
54937;SDS011;52756;52.826;6.214;2024-01-30T12:38:26;3.03;;;1.17;;
54937;SDS011;52756;52.826;6.214;2024-01-30T12:40:55;4.57;;;1.52;;
54937;SDS011;52756;52.826;6.214;2024-01-30T12:43:21;4.68;;;1.55;;
54937;SDS011;52756;52.826;6.214;2024-01-30T12:45:49;3.30;;;1.40;;
54937;SDS011;52756;52.826;6.214;2024-01-30T12:48:15;3.97;;;1.17;;
54937;SDS011;52756;52.826;6.214;2024-01-30T12:50:41;3.65;;;1.17;;
54937;SDS011;52756;52.826;6.214;2024-01-30T12:53:06;4.35;;;1.23;;
54937;SDS011;52756;52.826;6.214;2024-01-30T12:55:34;3.78;;;1.23;;
54937;SDS011;52756;52.826;6.214;2024-01-30T12:57:59;4.15;;;1.25;;
54937;SDS011;52756;52.826;6.214;2024-01-30T13:00:25;3.85;;;1.42;;
54937;SDS011;52756;52.826;6.214;2024-01-30T13:02:51;4.57;;;1.60;;
54937;SDS011;52756;52.826;6.214;2024-01-30T13:05:16;4.32;;;1.73;;
54937;SDS011;52756;52.826;6.214;2024-01-30T13:07:42;4.18;;;1.10;;
54937;SDS011;52756;52.826;6.214;2024-01-30T13:10:08;3.05;;;1.17;;
54937;SDS011;52756;52.826;6.214;2024-01-30T13:12:35;3.22;;;0.93;;
54937;SDS011;52756;52.826;6.214;2024-01-30T13:15:02;3.30;;;1.05;;
54937;SDS011;52756;52.826;6.214;2024-01-30T13:17:29;3.92;;;0.95;;
54937;SDS011;52756;52.826;6.214;2024-01-30T13:19:55;2.92;;;0.80;;
54937;SDS011;52756;52.826;6.214;2024-01-30T13:22:21;5.00;;;0.98;;
54937;SDS011;52756;52.826;6.214;2024-01-30T13:24:47;4.38;;;1.00;;
54937;SDS011;52756;52.826;6.214;2024-01-30T13:27:13;3.05;;;1.15;;
54937;SDS011;52756;52.826;6.214;2024-01-30T13:29:39;3.50;;;1.15;;
54937;SDS011;52756;52.826;6.214;2024-01-30T13:32:05;3.55;;;0.80;;
54937;SDS011;52756;52.826;6.214;2024-01-30T13:34:30;1.63;;;0.85;;
54937;SDS011;52756;52.826;6.214;2024-01-30T13:36:56;2.85;;;1.00;;
54937;SDS011;52756;52.826;6.214;2024-01-30T13:39:22;3.83;;;1.30;;
54937;SDS011;52756;52.826;6.214;2024-01-30T13:41:48;3.33;;;1.20;;
54937;SDS011;52756;52.826;6.214;2024-01-30T13:44:14;5.82;;;1.52;;
54937;SDS011;52756;52.826;6.214;2024-01-30T13:46:41;5.40;;;1.65;;
54937;SDS011;52756;52.826;6.214;2024-01-30T13:49:07;5.15;;;1.52;;
54937;SDS011;52756;52.826;6.214;2024-01-30T13:51:33;3.47;;;1.58;;
54937;SDS011;52756;52.826;6.214;2024-01-30T13:53:59;6.90;;;2.40;;
54937;SDS011;52756;52.826;6.214;2024-01-30T13:56:24;6.22;;;2.75;;
54937;SDS011;52756;52.826;6.214;2024-01-30T13:58:51;6.20;;;2.35;;
54937;SDS011;52756;52.826;6.214;2024-01-30T14:01:17;3.92;;;1.92;;
54937;SDS011;52756;52.826;6.214;2024-01-30T14:03:43;6.00;;;2.28;;
54937;SDS011;52756;52.826;6.214;2024-01-30T14:06:09;5.03;;;2.00;;
54937;SDS011;52756;52.826;6.214;2024-01-30T14:08:36;5.43;;;2.60;;
54937;SDS011;52756;52.826;6.214;2024-01-30T14:11:02;5.10;;;2.22;;
54937;SDS011;52756;52.826;6.214;2024-01-30T14:13:28;5.45;;;2.28;;
54937;SDS011;52756;52.826;6.214;2024-01-30T14:15:55;7.05;;;2.38;;
54937;SDS011;52756;52.826;6.214;2024-01-30T14:18:21;4.05;;;1.48;;
54937;SDS011;52756;52.826;6.214;2024-01-30T14:20:47;6.15;;;2.13;;
54937;SDS011;52756;52.826;6.214;2024-01-30T14:23:13;4.05;;;1.65;;